sensor_id;sensor_type;location;lat;lon;timestamp;temperature;humidity
68354;DHT22;55274;43.060;25.618;2023-12-20T00:01:01;-0.60;99.90
68354;DHT22;55274;43.060;25.618;2023-12-20T00:03:26;-0.70;99.90
68354;DHT22;55274;43.060;25.618;2023-12-20T00:05:52;-0.70;99.90
68354;DHT22;55274;43.060;25.618;2023-12-20T00:08:18;-0.70;99.90
68354;DHT22;55274;43.060;25.618;2023-12-20T00:10:44;-0.70;99.90
68354;DHT22;55274;43.060;25.618;2023-12-20T00:13:10;-0.70;99.90
68354;DHT22;55274;43.060;25.618;2023-12-20T00:15:36;-0.70;99.90
68354;DHT22;55274;43.060;25.618;2023-12-20T00:18:02;-0.70;99.90
68354;DHT22;55274;43.060;25.618;2023-12-20T00:20:28;-0.80;99.90
68354;DHT22;55274;43.060;25.618;2023-12-20T00:22:56;-0.80;99.90
68354;DHT22;55274;43.060;25.618;2023-12-20T00:25:23;-0.70;99.90
68354;DHT22;55274;43.060;25.618;2023-12-20T00:27:49;-0.80;99.90
68354;DHT22;55274;43.060;25.618;2023-12-20T00:30:15;-0.80;99.90
68354;DHT22;55274;43.060;25.618;2023-12-20T00:32:41;-0.70;99.90
68354;DHT22;55274;43.060;25.618;2023-12-20T00:35:15;-0.70;99.90
68354;DHT22;55274;43.060;25.618;2023-12-20T00:37:44;-0.80;99.90
68354;DHT22;55274;43.060;25.618;2023-12-20T00:40:10;-0.70;99.90
68354;DHT22;55274;43.060;25.618;2023-12-20T00:42:36;-0.70;99.90
68354;DHT22;55274;43.060;25.618;2023-12-20T00:45:02;-0.70;99.90
68354;DHT22;55274;43.060;25.618;2023-12-20T00:47:30;-0.70;99.90
68354;DHT22;55274;43.060;25.618;2023-12-20T00:49:56;-0.70;99.90
68354;DHT22;55274;43.060;25.618;2023-12-20T00:52:22;-0.70;99.90
68354;DHT22;55274;43.060;25.618;2023-12-20T00:54:48;-0.80;99.90
68354;DHT22;55274;43.060;25.618;2023-12-20T00:57:14;-0.90;99.90
68354;DHT22;55274;43.060;25.618;2023-12-20T00:59:40;-0.80;99.90
68354;DHT22;55274;43.060;25.618;2023-12-20T01:02:06;-0.90;99.90
68354;DHT22;55274;43.060;25.618;2023-12-20T01:04:32;-0.90;99.90
68354;DHT22;55274;43.060;25.618;2023-12-20T01:06:58;-0.90;99.90
68354;DHT22;55274;43.060;25.618;2023-12-20T01:09:23;-0.90;99.90
68354;DHT22;55274;43.060;25.618;2023-12-20T01:11:52;-0.90;99.90
68354;DHT22;55274;43.060;25.618;2023-12-20T01:14:18;-0.90;99.90
68354;DHT22;55274;43.060;25.618;2023-12-20T01:16:44;-0.90;99.90
68354;DHT22;55274;43.060;25.618;2023-12-20T01:19:10;-1.00;99.90
68354;DHT22;55274;43.060;25.618;2023-12-20T01:21:35;-1.00;99.90
68354;DHT22;55274;43.060;25.618;2023-12-20T01:24:01;-1.00;99.90
68354;DHT22;55274;43.060;25.618;2023-12-20T01:26:27;-1.00;99.90
68354;DHT22;55274;43.060;25.618;2023-12-20T01:28:53;-1.10;99.90
68354;DHT22;55274;43.060;25.618;2023-12-20T01:31:19;-1.10;99.90
68354;DHT22;55274;43.060;25.618;2023-12-20T01:33:45;-1.10;99.90
68354;DHT22;55274;43.060;25.618;2023-12-20T01:36:11;-1.10;99.90
68354;DHT22;55274;43.060;25.618;2023-12-20T01:38:37;-1.10;99.90
68354;DHT22;55274;43.060;25.618;2023-12-20T01:41:03;-1.10;99.90
68354;DHT22;55274;43.060;25.618;2023-12-20T01:43:30;-1.10;99.90
68354;DHT22;55274;43.060;25.618;2023-12-20T01:45:59;-1.10;99.90
68354;DHT22;55274;43.060;25.618;2023-12-20T01:48:26;-1.10;99.90
68354;DHT22;55274;43.060;25.618;2023-12-20T01:50:54;-1.10;99.90
68354;DHT22;55274;43.060;25.618;2023-12-20T01:53:21;-1.20;99.90
68354;DHT22;55274;43.060;25.618;2023-12-20T01:55:50;-1.10;99.90
68354;DHT22;55274;43.060;25.618;2023-12-20T01:58:18;-1.10;99.90
68354;DHT22;55274;43.060;25.618;2023-12-20T02:00:44;-1.10;99.90
68354;DHT22;55274;43.060;25.618;2023-12-20T02:03:11;-1.10;99.90
68354;DHT22;55274;43.060;25.618;2023-12-20T02:05:38;-1.20;99.90
68354;DHT22;55274;43.060;25.618;2023-12-20T02:08:04;-1.20;99.90
68354;DHT22;55274;43.060;25.618;2023-12-20T02:10:31;-1.20;99.90
68354;DHT22;55274;43.060;25.618;2023-12-20T02:12:57;-1.20;99.90
68354;DHT22;55274;43.060;25.618;2023-12-20T02:15:23;-1.20;99.90
68354;DHT22;55274;43.060;25.618;2023-12-20T02:17:49;-1.20;99.90
68354;DHT22;55274;43.060;25.618;2023-12-20T02:20:15;-1.20;99.90
68354;DHT22;55274;43.060;25.618;2023-12-20T02:22:41;-1.20;99.90
68354;DHT22;55274;43.060;25.618;2023-12-20T02:25:07;-1.30;99.90
68354;DHT22;55274;43.060;25.618;2023-12-20T02:27:33;-1.30;99.90
68354;DHT22;55274;43.060;25.618;2023-12-20T02:29:59;-1.30;99.90
68354;DHT22;55274;43.060;25.618;2023-12-20T02:32:25;-1.30;99.90
68354;DHT22;55274;43.060;25.618;2023-12-20T02:34:54;-1.30;99.90
68354;DHT22;55274;43.060;25.618;2023-12-20T02:37:20;-1.30;99.90
68354;DHT22;55274;43.060;25.618;2023-12-20T02:39:45;-1.30;99.90
68354;DHT22;55274;43.060;25.618;2023-12-20T02:42:11;-1.30;99.90
68354;DHT22;55274;43.060;25.618;2023-12-20T02:44:37;-1.40;99.90
68354;DHT22;55274;43.060;25.618;2023-12-20T02:47:03;-1.40;99.90
68354;DHT22;55274;43.060;25.618;2023-12-20T02:49:29;-1.40;99.90
68354;DHT22;55274;43.060;25.618;2023-12-20T02:51:54;-1.40;99.90
68354;DHT22;55274;43.060;25.618;2023-12-20T02:54:20;-1.50;99.90
68354;DHT22;55274;43.060;25.618;2023-12-20T02:56:46;-1.50;99.90
68354;DHT22;55274;43.060;25.618;2023-12-20T02:59:12;-1.50;99.90
68354;DHT22;55274;43.060;25.618;2023-12-20T03:01:43;-1.50;99.90
68354;DHT22;55274;43.060;25.618;2023-12-20T03:04:09;-1.50;99.90
68354;DHT22;55274;43.060;25.618;2023-12-20T03:06:34;-1.50;99.90
68354;DHT22;55274;43.060;25.618;2023-12-20T03:09:00;-1.50;99.90
68354;DHT22;55274;43.060;25.618;2023-12-20T03:11:29;-1.60;99.90
68354;DHT22;55274;43.060;25.618;2023-12-20T03:13:55;-1.50;99.90
68354;DHT22;55274;43.060;25.618;2023-12-20T03:16:21;-1.60;99.90
68354;DHT22;55274;43.060;25.618;2023-12-20T03:18:47;-1.60;99.90
68354;DHT22;55274;43.060;25.618;2023-12-20T03:21:12;-1.60;99.90
68354;DHT22;55274;43.060;25.618;2023-12-20T03:23:39;-1.60;99.90
68354;DHT22;55274;43.060;25.618;2023-12-20T03:26:09;-1.60;99.90
68354;DHT22;55274;43.060;25.618;2023-12-20T03:28:36;-1.60;99.90
68354;DHT22;55274;43.060;25.618;2023-12-20T03:31:02;-1.60;99.90
68354;DHT22;55274;43.060;25.618;2023-12-20T03:33:28;-1.60;99.90
68354;DHT22;55274;43.060;25.618;2023-12-20T03:35:54;-1.60;99.90
68354;DHT22;55274;43.060;25.618;2023-12-20T03:38:21;-1.60;99.90
68354;DHT22;55274;43.060;25.618;2023-12-20T03:40:46;-1.60;99.90
68354;DHT22;55274;43.060;25.618;2023-12-20T03:43:12;-1.60;99.90
68354;DHT22;55274;43.060;25.618;2023-12-20T03:45:38;-1.60;99.90
68354;DHT22;55274;43.060;25.618;2023-12-20T03:48:04;-1.60;99.90
68354;DHT22;55274;43.060;25.618;2023-12-20T03:50:30;-1.60;99.90
68354;DHT22;55274;43.060;25.618;2023-12-20T03:52:56;-1.60;99.90
68354;DHT22;55274;43.060;25.618;2023-12-20T03:55:22;-1.70;99.90
68354;DHT22;55274;43.060;25.618;2023-12-20T03:57:47;-1.70;99.90
68354;DHT22;55274;43.060;25.618;2023-12-20T04:00:13;-1.70;99.90
68354;DHT22;55274;43.060;25.618;2023-12-20T04:02:40;-1.80;99.90
68354;DHT22;55274;43.060;25.618;2023-12-20T04:05:07;-1.80;99.90
68354;DHT22;55274;43.060;25.618;2023-12-20T04:07:33;-1.80;99.90
68354;DHT22;55274;43.060;25.618;2023-12-20T04:09:59;-1.80;99.90
68354;DHT22;55274;43.060;25.618;2023-12-20T04:12:26;-1.80;99.90
68354;DHT22;55274;43.060;25.618;2023-12-20T04:14:51;-1.70;99.90
68354;DHT22;55274;43.060;25.618;2023-12-20T04:17:17;-1.80;99.90
68354;DHT22;55274;43.060;25.618;2023-12-20T04:19:43;-1.80;99.90
68354;DHT22;55274;43.060;25.618;2023-12-20T04:22:09;-1.70;99.90
68354;DHT22;55274;43.060;25.618;2023-12-20T04:24:35;-1.70;99.90
68354;DHT22;55274;43.060;25.618;2023-12-20T04:27:01;-1.70;99.90
68354;DHT22;55274;43.060;25.618;2023-12-20T04:29:27;-1.80;99.90
68354;DHT22;55274;43.060;25.618;2023-12-20T04:31:53;-1.80;99.90
68354;DHT22;55274;43.060;25.618;2023-12-20T04:34:20;-1.80;99.90
68354;DHT22;55274;43.060;25.618;2023-12-20T04:36:45;-1.80;99.90
68354;DHT22;55274;43.060;25.618;2023-12-20T04:39:12;-1.70;99.90
68354;DHT22;55274;43.060;25.618;2023-12-20T04:41:38;-1.70;99.90
68354;DHT22;55274;43.060;25.618;2023-12-20T04:44:04;-1.80;99.90
68354;DHT22;55274;43.060;25.618;2023-12-20T04:46:30;-1.80;99.90
68354;DHT22;55274;43.060;25.618;2023-12-20T04:48:55;-1.80;99.90
68354;DHT22;55274;43.060;25.618;2023-12-20T04:51:21;-1.80;99.90
68354;DHT22;55274;43.060;25.618;2023-12-20T04:53:47;-1.80;99.90
68354;DHT22;55274;43.060;25.618;2023-12-20T04:56:13;-1.90;99.90
68354;DHT22;55274;43.060;25.618;2023-12-20T04:58:39;-1.90;99.90
68354;DHT22;55274;43.060;25.618;2023-12-20T05:01:06;-1.90;99.90
68354;DHT22;55274;43.060;25.618;2023-12-20T05:03:32;-1.90;99.90
68354;DHT22;55274;43.060;25.618;2023-12-20T05:05:58;-1.90;99.90
68354;DHT22;55274;43.060;25.618;2023-12-20T05:08:24;-1.90;99.90
68354;DHT22;55274;43.060;25.618;2023-12-20T05:10:52;-1.90;99.90
68354;DHT22;55274;43.060;25.618;2023-12-20T05:13:18;-2.00;99.90
68354;DHT22;55274;43.060;25.618;2023-12-20T05:15:44;-2.00;99.90
68354;DHT22;55274;43.060;25.618;2023-12-20T05:18:11;-2.00;99.90
68354;DHT22;55274;43.060;25.618;2023-12-20T05:20:37;-2.00;99.90
68354;DHT22;55274;43.060;25.618;2023-12-20T05:23:03;-2.10;99.90
68354;DHT22;55274;43.060;25.618;2023-12-20T05:25:28;-2.10;99.90
68354;DHT22;55274;43.060;25.618;2023-12-20T05:27:54;-2.00;99.90
68354;DHT22;55274;43.060;25.618;2023-12-20T05:30:20;-2.00;99.90
68354;DHT22;55274;43.060;25.618;2023-12-20T05:32:46;-2.00;99.90
68354;DHT22;55274;43.060;25.618;2023-12-20T05:35:11;-2.00;99.90
68354;DHT22;55274;43.060;25.618;2023-12-20T05:37:37;-1.90;99.90
68354;DHT22;55274;43.060;25.618;2023-12-20T05:40:03;-1.90;99.90
68354;DHT22;55274;43.060;25.618;2023-12-20T05:42:30;-1.80;99.90
68354;DHT22;55274;43.060;25.618;2023-12-20T05:44:55;-1.80;99.90
68354;DHT22;55274;43.060;25.618;2023-12-20T05:47:21;-1.70;99.90
68354;DHT22;55274;43.060;25.618;2023-12-20T05:49:47;-1.70;99.90
68354;DHT22;55274;43.060;25.618;2023-12-20T05:52:13;-1.60;99.90
68354;DHT22;55274;43.060;25.618;2023-12-20T05:54:38;-1.60;99.90
68354;DHT22;55274;43.060;25.618;2023-12-20T05:57:04;-1.50;99.90
68354;DHT22;55274;43.060;25.618;2023-12-20T05:59:30;-1.50;99.90
68354;DHT22;55274;43.060;25.618;2023-12-20T06:01:56;-1.40;99.90
68354;DHT22;55274;43.060;25.618;2023-12-20T06:04:21;-1.40;99.90
68354;DHT22;55274;43.060;25.618;2023-12-20T06:06:47;-1.30;99.90
68354;DHT22;55274;43.060;25.618;2023-12-20T06:09:13;-1.20;99.90
68354;DHT22;55274;43.060;25.618;2023-12-20T06:11:39;-1.20;99.90
68354;DHT22;55274;43.060;25.618;2023-12-20T06:14:04;-1.10;99.90
68354;DHT22;55274;43.060;25.618;2023-12-20T06:16:31;-1.10;99.90
68354;DHT22;55274;43.060;25.618;2023-12-20T06:18:56;-1.00;99.90
68354;DHT22;55274;43.060;25.618;2023-12-20T06:21:22;-1.00;99.90
68354;DHT22;55274;43.060;25.618;2023-12-20T06:23:48;-0.90;99.90
68354;DHT22;55274;43.060;25.618;2023-12-20T06:26:14;-0.80;99.90
68354;DHT22;55274;43.060;25.618;2023-12-20T06:28:39;-0.80;99.90
68354;DHT22;55274;43.060;25.618;2023-12-20T06:31:05;-0.60;99.90
68354;DHT22;55274;43.060;25.618;2023-12-20T06:33:31;-0.60;99.90
68354;DHT22;55274;43.060;25.618;2023-12-20T06:35:57;-0.50;99.90
68354;DHT22;55274;43.060;25.618;2023-12-20T06:38:23;-0.40;99.90
68354;DHT22;55274;43.060;25.618;2023-12-20T06:40:49;-0.40;99.90
68354;DHT22;55274;43.060;25.618;2023-12-20T06:43:14;-0.30;99.90
68354;DHT22;55274;43.060;25.618;2023-12-20T06:45:40;-0.20;99.90
68354;DHT22;55274;43.060;25.618;2023-12-20T06:48:06;0.00;99.90
68354;DHT22;55274;43.060;25.618;2023-12-20T06:50:32;0.10;99.90
68354;DHT22;55274;43.060;25.618;2023-12-20T06:52:58;0.20;99.90
68354;DHT22;55274;43.060;25.618;2023-12-20T06:55:24;0.30;99.90
68354;DHT22;55274;43.060;25.618;2023-12-20T06:57:50;0.40;99.90
68354;DHT22;55274;43.060;25.618;2023-12-20T07:00:16;0.50;99.90
68354;DHT22;55274;43.060;25.618;2023-12-20T07:02:42;0.50;99.90
68354;DHT22;55274;43.060;25.618;2023-12-20T07:05:09;0.60;99.90
68354;DHT22;55274;43.060;25.618;2023-12-20T07:07:34;0.70;99.90
68354;DHT22;55274;43.060;25.618;2023-12-20T07:10:00;0.80;99.90
68354;DHT22;55274;43.060;25.618;2023-12-20T07:12:26;0.90;99.90
68354;DHT22;55274;43.060;25.618;2023-12-20T07:14:52;1.30;99.90
68354;DHT22;55274;43.060;25.618;2023-12-20T07:17:17;1.80;99.90
68354;DHT22;55274;43.060;25.618;2023-12-20T07:19:43;2.10;99.90
68354;DHT22;55274;43.060;25.618;2023-12-20T07:22:09;2.30;99.90
68354;DHT22;55274;43.060;25.618;2023-12-20T07:24:35;2.50;99.90
68354;DHT22;55274;43.060;25.618;2023-12-20T07:27:01;2.60;99.90
68354;DHT22;55274;43.060;25.618;2023-12-20T07:29:27;2.70;99.90
68354;DHT22;55274;43.060;25.618;2023-12-20T07:31:53;2.80;99.90
68354;DHT22;55274;43.060;25.618;2023-12-20T07:34:22;3.00;99.90
68354;DHT22;55274;43.060;25.618;2023-12-20T07:36:48;3.30;99.90
68354;DHT22;55274;43.060;25.618;2023-12-20T07:39:14;3.80;99.90
68354;DHT22;55274;43.060;25.618;2023-12-20T07:41:40;4.30;99.90
68354;DHT22;55274;43.060;25.618;2023-12-20T07:44:06;4.80;99.90
68354;DHT22;55274;43.060;25.618;2023-12-20T07:46:32;5.00;99.90
68354;DHT22;55274;43.060;25.618;2023-12-20T07:48:58;5.00;99.90
68354;DHT22;55274;43.060;25.618;2023-12-20T07:51:24;5.00;99.90
68354;DHT22;55274;43.060;25.618;2023-12-20T07:53:51;4.90;99.90
68354;DHT22;55274;43.060;25.618;2023-12-20T07:56:18;4.80;99.90
68354;DHT22;55274;43.060;25.618;2023-12-20T07:58:45;5.00;99.90
68354;DHT22;55274;43.060;25.618;2023-12-20T08:01:11;5.40;99.90
68354;DHT22;55274;43.060;25.618;2023-12-20T08:03:38;5.70;99.90
68354;DHT22;55274;43.060;25.618;2023-12-20T08:06:04;6.20;99.90
68354;DHT22;55274;43.060;25.618;2023-12-20T08:08:30;5.70;99.90
68354;DHT22;55274;43.060;25.618;2023-12-20T08:10:56;5.60;99.90
68354;DHT22;55274;43.060;25.618;2023-12-20T08:13:24;5.50;99.90
68354;DHT22;55274;43.060;25.618;2023-12-20T08:15:52;5.60;99.90
68354;DHT22;55274;43.060;25.618;2023-12-20T08:18:18;5.80;99.90
68354;DHT22;55274;43.060;25.618;2023-12-20T08:20:44;6.10;99.90
68354;DHT22;55274;43.060;25.618;2023-12-20T08:23:10;6.40;99.90
68354;DHT22;55274;43.060;25.618;2023-12-20T08:25:35;6.70;99.90
68354;DHT22;55274;43.060;25.618;2023-12-20T08:28:02;6.80;99.90
68354;DHT22;55274;43.060;25.618;2023-12-20T08:30:28;7.00;99.90
68354;DHT22;55274;43.060;25.618;2023-12-20T08:32:55;6.90;99.90
68354;DHT22;55274;43.060;25.618;2023-12-20T08:35:21;6.70;99.90
68354;DHT22;55274;43.060;25.618;2023-12-20T08:37:47;6.80;99.90
68354;DHT22;55274;43.060;25.618;2023-12-20T08:40:13;6.60;99.90
68354;DHT22;55274;43.060;25.618;2023-12-20T08:42:39;6.30;99.90
68354;DHT22;55274;43.060;25.618;2023-12-20T08:45:05;6.00;99.90
68354;DHT22;55274;43.060;25.618;2023-12-20T08:47:31;5.80;99.90
68354;DHT22;55274;43.060;25.618;2023-12-20T08:49:57;5.90;99.90
68354;DHT22;55274;43.060;25.618;2023-12-20T08:52:25;6.10;99.90
68354;DHT22;55274;43.060;25.618;2023-12-20T08:54:55;6.10;99.90
68354;DHT22;55274;43.060;25.618;2023-12-20T08:57:21;6.40;99.90
68354;DHT22;55274;43.060;25.618;2023-12-20T08:59:48;6.80;99.90
68354;DHT22;55274;43.060;25.618;2023-12-20T09:02:14;7.10;99.90
68354;DHT22;55274;43.060;25.618;2023-12-20T09:04:40;7.50;99.90
68354;DHT22;55274;43.060;25.618;2023-12-20T09:07:06;7.70;99.90
68354;DHT22;55274;43.060;25.618;2023-12-20T09:09:33;8.00;99.90
68354;DHT22;55274;43.060;25.618;2023-12-20T09:11:59;8.10;99.90
68354;DHT22;55274;43.060;25.618;2023-12-20T09:14:25;8.30;99.90
68354;DHT22;55274;43.060;25.618;2023-12-20T09:16:51;8.30;99.90
68354;DHT22;55274;43.060;25.618;2023-12-20T09:19:17;8.50;99.90
68354;DHT22;55274;43.060;25.618;2023-12-20T09:21:43;8.60;99.90
68354;DHT22;55274;43.060;25.618;2023-12-20T09:24:09;8.80;99.90
68354;DHT22;55274;43.060;25.618;2023-12-20T09:26:35;8.90;99.90
68354;DHT22;55274;43.060;25.618;2023-12-20T09:29:00;9.00;99.90
68354;DHT22;55274;43.060;25.618;2023-12-20T09:31:26;9.10;99.90
68354;DHT22;55274;43.060;25.618;2023-12-20T09:33:52;9.30;99.90
68354;DHT22;55274;43.060;25.618;2023-12-20T09:36:18;9.40;99.90
68354;DHT22;55274;43.060;25.618;2023-12-20T09:38:44;9.50;99.90
68354;DHT22;55274;43.060;25.618;2023-12-20T09:41:09;9.50;99.90
68354;DHT22;55274;43.060;25.618;2023-12-20T09:43:38;9.50;99.90
68354;DHT22;55274;43.060;25.618;2023-12-20T09:46:06;9.50;99.90
68354;DHT22;55274;43.060;25.618;2023-12-20T09:48:33;9.60;99.90
68354;DHT22;55274;43.060;25.618;2023-12-20T09:51:00;9.70;99.90
68354;DHT22;55274;43.060;25.618;2023-12-20T09:53:26;9.70;99.90
68354;DHT22;55274;43.060;25.618;2023-12-20T09:55:58;9.90;99.90
68354;DHT22;55274;43.060;25.618;2023-12-20T09:58:27;10.10;99.90
68354;DHT22;55274;43.060;25.618;2023-12-20T10:00:54;10.10;99.90
68354;DHT22;55274;43.060;25.618;2023-12-20T10:03:25;10.10;99.90
68354;DHT22;55274;43.060;25.618;2023-12-20T10:05:56;10.20;99.90
68354;DHT22;55274;43.060;25.618;2023-12-20T10:08:24;10.40;99.90
68354;DHT22;55274;43.060;25.618;2023-12-20T10:10:51;10.40;99.90
68354;DHT22;55274;43.060;25.618;2023-12-20T10:13:17;10.40;99.90
68354;DHT22;55274;43.060;25.618;2023-12-20T10:15:43;10.30;99.90
68354;DHT22;55274;43.060;25.618;2023-12-20T10:18:08;10.30;99.90
68354;DHT22;55274;43.060;25.618;2023-12-20T10:20:34;10.40;99.90
68354;DHT22;55274;43.060;25.618;2023-12-20T10:23:01;10.40;99.90
68354;DHT22;55274;43.060;25.618;2023-12-20T10:25:27;10.40;99.90
68354;DHT22;55274;43.060;25.618;2023-12-20T10:28:15;10.40;99.90
68354;DHT22;55274;43.060;25.618;2023-12-20T10:30:45;10.50;99.90
68354;DHT22;55274;43.060;25.618;2023-12-20T10:33:11;10.60;99.90
68354;DHT22;55274;43.060;25.618;2023-12-20T10:35:38;10.50;99.90
68354;DHT22;55274;43.060;25.618;2023-12-20T10:38:06;10.40;99.90
68354;DHT22;55274;43.060;25.618;2023-12-20T10:40:35;10.40;99.90
68354;DHT22;55274;43.060;25.618;2023-12-20T10:43:04;10.40;99.90
68354;DHT22;55274;43.060;25.618;2023-12-20T10:45:31;10.40;99.90
68354;DHT22;55274;43.060;25.618;2023-12-20T10:47:58;10.40;99.90
68354;DHT22;55274;43.060;25.618;2023-12-20T10:50:27;10.40;99.90
68354;DHT22;55274;43.060;25.618;2023-12-20T10:52:55;10.40;99.90
68354;DHT22;55274;43.060;25.618;2023-12-20T10:55:25;10.30;99.90
68354;DHT22;55274;43.060;25.618;2023-12-20T10:58:09;10.30;99.90
68354;DHT22;55274;43.060;25.618;2023-12-20T11:00:40;10.30;99.90
68354;DHT22;55274;43.060;25.618;2023-12-20T11:03:09;10.30;99.90
68354;DHT22;55274;43.060;25.618;2023-12-20T11:05:46;10.40;99.90
68354;DHT22;55274;43.060;25.618;2023-12-20T11:08:22;10.50;99.90
68354;DHT22;55274;43.060;25.618;2023-12-20T11:13:36;10.40;99.90
68354;DHT22;55274;43.060;25.618;2023-12-20T11:16:03;10.40;99.90
68354;DHT22;55274;43.060;25.618;2023-12-20T11:18:32;10.40;99.90
68354;DHT22;55274;43.060;25.618;2023-12-20T11:21:02;10.40;99.90
68354;DHT22;55274;43.060;25.618;2023-12-20T11:23:30;10.50;99.90
68354;DHT22;55274;43.060;25.618;2023-12-20T11:25:57;10.40;99.90
68354;DHT22;55274;43.060;25.618;2023-12-20T11:28:26;10.40;99.90
68354;DHT22;55274;43.060;25.618;2023-12-20T11:33:26;10.40;99.90
68354;DHT22;55274;43.060;25.618;2023-12-20T11:35:55;10.50;99.90
68354;DHT22;55274;43.060;25.618;2023-12-20T11:38:21;10.50;99.90
68354;DHT22;55274;43.060;25.618;2023-12-20T11:40:50;10.40;99.90
68354;DHT22;55274;43.060;25.618;2023-12-20T11:43:35;10.20;99.90
68354;DHT22;55274;43.060;25.618;2023-12-20T11:46:09;10.20;99.90
68354;DHT22;55274;43.060;25.618;2023-12-20T11:48:37;10.20;99.90
68354;DHT22;55274;43.060;25.618;2023-12-20T11:51:08;10.30;99.90
68354;DHT22;55274;43.060;25.618;2023-12-20T11:53:34;10.30;99.90
68354;DHT22;55274;43.060;25.618;2023-12-20T11:56:00;10.20;99.90
68354;DHT22;55274;43.060;25.618;2023-12-20T11:58:28;10.20;99.90
68354;DHT22;55274;43.060;25.618;2023-12-20T12:00:55;10.20;99.90
68354;DHT22;55274;43.060;25.618;2023-12-20T12:03:21;10.30;99.90
68354;DHT22;55274;43.060;25.618;2023-12-20T12:05:50;10.20;99.90
68354;DHT22;55274;43.060;25.618;2023-12-20T12:08:16;10.20;99.90
68354;DHT22;55274;43.060;25.618;2023-12-20T12:10:45;10.20;99.90
68354;DHT22;55274;43.060;25.618;2023-12-20T12:13:12;10.10;99.90
68354;DHT22;55274;43.060;25.618;2023-12-20T12:15:39;10.10;99.90
68354;DHT22;55274;43.060;25.618;2023-12-20T12:18:07;10.10;99.90
68354;DHT22;55274;43.060;25.618;2023-12-20T12:20:33;10.00;99.90
68354;DHT22;55274;43.060;25.618;2023-12-20T12:23:00;9.90;99.90
68354;DHT22;55274;43.060;25.618;2023-12-20T12:25:26;10.00;99.90
68354;DHT22;55274;43.060;25.618;2023-12-20T12:27:54;10.00;99.90
68354;DHT22;55274;43.060;25.618;2023-12-20T12:30:19;10.00;99.90
68354;DHT22;55274;43.060;25.618;2023-12-20T12:32:46;10.00;99.90
68354;DHT22;55274;43.060;25.618;2023-12-20T12:35:12;10.00;99.90
68354;DHT22;55274;43.060;25.618;2023-12-20T12:37:40;10.10;99.90
68354;DHT22;55274;43.060;25.618;2023-12-20T12:40:07;10.10;99.90
68354;DHT22;55274;43.060;25.618;2023-12-20T12:42:36;10.10;99.90
68354;DHT22;55274;43.060;25.618;2023-12-20T12:45:01;10.10;99.90
68354;DHT22;55274;43.060;25.618;2023-12-20T12:47:27;10.20;99.90
68354;DHT22;55274;43.060;25.618;2023-12-20T12:49:53;10.00;99.90
68354;DHT22;55274;43.060;25.618;2023-12-20T12:52:20;9.90;99.90
68354;DHT22;55274;43.060;25.618;2023-12-20T12:54:45;9.90;99.90
68354;DHT22;55274;43.060;25.618;2023-12-20T12:57:13;9.80;99.90
68354;DHT22;55274;43.060;25.618;2023-12-20T12:59:39;9.70;99.90
68354;DHT22;55274;43.060;25.618;2023-12-20T13:02:05;9.60;99.90
68354;DHT22;55274;43.060;25.618;2023-12-20T13:04:31;9.50;99.90
68354;DHT22;55274;43.060;25.618;2023-12-20T13:06:57;9.50;99.90
68354;DHT22;55274;43.060;25.618;2023-12-20T13:09:23;9.40;99.90
68354;DHT22;55274;43.060;25.618;2023-12-20T13:11:49;9.30;99.90
68354;DHT22;55274;43.060;25.618;2023-12-20T13:14:15;9.20;99.90
68354;DHT22;55274;43.060;25.618;2023-12-20T13:16:42;9.10;99.90
68354;DHT22;55274;43.060;25.618;2023-12-20T13:19:08;9.10;99.90
68354;DHT22;55274;43.060;25.618;2023-12-20T13:21:35;9.00;99.90
68354;DHT22;55274;43.060;25.618;2023-12-20T13:24:01;9.00;99.90
68354;DHT22;55274;43.060;25.618;2023-12-20T13:26:27;8.90;99.90
68354;DHT22;55274;43.060;25.618;2023-12-20T13:28:54;8.90;99.90
68354;DHT22;55274;43.060;25.618;2023-12-20T13:31:20;8.90;99.90
68354;DHT22;55274;43.060;25.618;2023-12-20T13:33:46;8.80;99.90
68354;DHT22;55274;43.060;25.618;2023-12-20T13:36:12;8.70;99.90
68354;DHT22;55274;43.060;25.618;2023-12-20T13:38:38;8.70;99.90
68354;DHT22;55274;43.060;25.618;2023-12-20T13:41:04;8.60;99.90
68354;DHT22;55274;43.060;25.618;2023-12-20T13:43:31;8.60;99.90
68354;DHT22;55274;43.060;25.618;2023-12-20T13:45:59;8.50;99.90
68354;DHT22;55274;43.060;25.618;2023-12-20T13:48:24;8.50;99.90
68354;DHT22;55274;43.060;25.618;2023-12-20T13:50:50;8.60;99.90
68354;DHT22;55274;43.060;25.618;2023-12-20T13:53:16;8.40;99.90
68354;DHT22;55274;43.060;25.618;2023-12-20T13:55:42;8.40;99.90
68354;DHT22;55274;43.060;25.618;2023-12-20T13:58:08;8.30;99.90
68354;DHT22;55274;43.060;25.618;2023-12-20T14:00:36;8.30;99.90
68354;DHT22;55274;43.060;25.618;2023-12-20T14:03:05;8.30;99.90
68354;DHT22;55274;43.060;25.618;2023-12-20T14:05:31;8.30;99.90
68354;DHT22;55274;43.060;25.618;2023-12-20T14:07:57;8.20;99.90
68354;DHT22;55274;43.060;25.618;2023-12-20T14:10:23;8.20;99.90
68354;DHT22;55274;43.060;25.618;2023-12-20T14:12:53;8.10;99.90
68354;DHT22;55274;43.060;25.618;2023-12-20T14:15:19;8.10;99.90
68354;DHT22;55274;43.060;25.618;2023-12-20T14:17:46;8.00;99.90
68354;DHT22;55274;43.060;25.618;2023-12-20T14:20:12;7.90;99.90
68354;DHT22;55274;43.060;25.618;2023-12-20T14:22:38;7.80;99.90
68354;DHT22;55274;43.060;25.618;2023-12-20T14:25:11;7.80;99.90
68354;DHT22;55274;43.060;25.618;2023-12-20T14:27:38;7.70;99.90
68354;DHT22;55274;43.060;25.618;2023-12-20T14:30:04;7.60;99.90
68354;DHT22;55274;43.060;25.618;2023-12-20T14:32:31;7.60;99.90
68354;DHT22;55274;43.060;25.618;2023-12-20T14:34:57;7.60;99.90
68354;DHT22;55274;43.060;25.618;2023-12-20T14:37:23;7.50;99.90
68354;DHT22;55274;43.060;25.618;2023-12-20T14:39:49;7.50;99.90
68354;DHT22;55274;43.060;25.618;2023-12-20T14:42:15;7.40;99.90
68354;DHT22;55274;43.060;25.618;2023-12-20T14:44:40;7.40;99.90
68354;DHT22;55274;43.060;25.618;2023-12-20T14:47:07;7.40;99.90
68354;DHT22;55274;43.060;25.618;2023-12-20T14:49:33;7.30;99.90
68354;DHT22;55274;43.060;25.618;2023-12-20T14:51:59;7.20;99.90
68354;DHT22;55274;43.060;25.618;2023-12-20T14:54:25;7.20;99.90
68354;DHT22;55274;43.060;25.618;2023-12-20T14:56:51;7.20;99.90
68354;DHT22;55274;43.060;25.618;2023-12-20T14:59:16;7.20;99.90
68354;DHT22;55274;43.060;25.618;2023-12-20T15:01:43;7.10;99.90
68354;DHT22;55274;43.060;25.618;2023-12-20T15:04:09;7.00;99.90
68354;DHT22;55274;43.060;25.618;2023-12-20T15:06:36;7.00;99.90
68354;DHT22;55274;43.060;25.618;2023-12-20T15:09:02;6.90;99.90
68354;DHT22;55274;43.060;25.618;2023-12-20T15:11:33;6.80;99.90
68354;DHT22;55274;43.060;25.618;2023-12-20T15:13:58;6.80;99.90
68354;DHT22;55274;43.060;25.618;2023-12-20T15:16:26;6.70;99.90
68354;DHT22;55274;43.060;25.618;2023-12-20T15:18:52;6.70;99.90
68354;DHT22;55274;43.060;25.618;2023-12-20T15:21:19;6.70;99.90
68354;DHT22;55274;43.060;25.618;2023-12-20T15:23:45;6.70;99.90